Time;durP1;ratioP1;P1;durP2;ratioP2;P2;SDS_P1;SDS_P2;PMS_P1;PMS_P2;Temp;Humidity;BMP_temperature;BMP_pressure;BME280_temperature;BME280_humidity;BME280_pressure;Samples;Min_cycle;Max_cycle;Signal;HPM_P1;HPM_P2
2021/05/24 00:00:07;;;;;;;1.40;1.10;;;409.90;1715.20;;;;;;5096789;28;20420;-62
2021/05/24 00:02:34;;;;;;;3.13;0.90;;;409.80;1715.20;;;;;;5097882;28;20028;-62
2021/05/24 00:04:59;;;;;;;2.00;1.08;;;409.80;1740.80;;;;;;5097590;28;20050;-62
2021/05/24 00:07:25;;;;;;;1.38;1.02;;;409.80;1715.20;;;;;;5097918;28;20028;-62
2021/05/24 00:09:51;;;;;;;4.25;1.20;;;409.80;1740.80;;;;;;5097563;28;20111;-62
2021/05/24 00:12:25;;;;;;;1.88;1.15;;;409.70;1740.80;;;;;;5097593;28;20043;-62
2021/05/24 00:14:51;;;;;;;1.63;1.00;;;409.70;1740.80;;;;;;5097351;28;20035;-62
2021/05/24 00:17:16;;;;;;;2.10;1.17;;;409.70;1740.80;;;;;;5097209;28;20027;-62
2021/05/24 00:19:42;;;;;;;2.13;1.10;;;409.70;1740.80;;;;;;5097489;28;20032;-62
2021/05/24 00:22:08;;;;;;;1.27;1.13;;;409.70;1740.80;;;;;;5096996;28;20044;-62
2021/05/24 00:24:34;;;;;;;3.83;0.90;;;409.70;1740.80;;;;;;5097262;28;20020;-62
2021/05/24 00:26:59;;;;;;;1.85;1.15;;;409.60;1740.80;;;;;;5097331;28;20020;-62
2021/05/24 00:29:26;;;;;;;2.90;0.98;;;409.60;1740.80;;;;;;5097278;28;20420;-62
2021/05/24 00:31:52;;;;;;;1.35;1.02;;;409.60;1740.80;;;;;;5097108;28;20125;-62
2021/05/24 00:34:18;;;;;;;2.97;1.20;;;409.60;1740.80;;;;;;5097721;28;20103;-62
2021/05/24 00:36:43;;;;;;;3.08;1.27;;;409.60;1740.80;;;;;;5096987;28;20032;-62
2021/05/24 00:39:09;;;;;;;1.35;1.00;;;409.60;1740.80;;;;;;5097330;28;20024;-62
2021/05/24 00:41:37;;;;;;;0.88;0.80;;;384.90;1715.20;;;;;;5096915;28;20032;-62
2021/05/24 00:44:04;;;;;;;1.27;0.90;;;384.90;1715.20;;;;;;5096878;28;20051;-62
2021/05/24 00:46:31;;;;;;;1.15;0.93;;;384.80;1715.20;;;;;;5096960;28;20103;-62
2021/05/24 00:48:57;;;;;;;1.55;1.13;;;384.80;1715.20;;;;;;5096822;28;20085;-62
2021/05/24 00:51:23;;;;;;;2.10;1.00;;;384.80;1740.80;;;;;;5095009;28;20040;-62
2021/05/24 00:53:49;;;;;;;1.17;0.90;;;384.80;1740.80;;;;;;5096861;28;20099;-62
2021/05/24 00:56:14;;;;;;;1.48;1.02;;;384.80;1715.20;;;;;;5096585;28;20131;-62
2021/05/24 00:58:40;;;;;;;1.85;1.23;;;384.80;1715.20;;;;;;5096777;28;20024;-62
2021/05/24 01:01:06;;;;;;;1.75;1.00;;;384.80;1740.80;;;;;;5096459;28;20020;-62
2021/05/24 01:03:32;;;;;;;1.13;0.98;;;384.80;1740.80;;;;;;5096559;28;20059;-62
2021/05/24 01:05:58;;;;;;;1.35;1.20;;;384.80;1740.80;;;;;;5095502;28;20016;-62
2021/05/24 01:08:23;;;;;;;2.25;1.55;;;384.70;1740.80;;;;;;5096250;28;20031;-62
2021/05/24 01:10:49;;;;;;;2.03;1.08;;;384.70;1740.80;;;;;;5096340;28;20028;-62
2021/05/24 01:13:16;;;;;;;2.47;1.30;;;384.70;1766.40;;;;;;5096451;28;20114;-62
2021/05/24 01:15:43;;;;;;;4.38;1.60;;;384.70;1766.40;;;;;;5096331;28;20030;-62
2021/05/24 01:18:09;;;;;;;2.13;1.40;;;384.70;1766.40;;;;;;5096290;28;20023;-62
2021/05/24 01:20:35;;;;;;;3.25;1.60;;;384.60;1766.40;;;;;;5095957;28;20386;-62
2021/05/24 01:25:28;;;;;;;1.98;1.40;;;384.60;1766.40;;;;;;5096531;28;20107;-62
2021/05/24 01:27:54;;;;;;;3.20;1.30;;;384.50;1766.40;;;;;;5096519;28;20039;-62
2021/05/24 01:30:20;;;;;;;2.20;1.45;;;384.50;1766.40;;;;;;5096219;28;20024;-62
2021/05/24 01:32:46;;;;;;;1.98;1.40;;;384.50;1792.00;;;;;;5095978;28;20081;-62
2021/05/24 01:35:12;;;;;;;1.90;1.30;;;384.40;1792.00;;;;;;5095974;28;20020;-62
2021/05/24 01:37:38;;;;;;;1.55;1.45;;;384.40;1792.00;;;;;;5095725;28;20039;-62
2021/05/24 01:40:05;;;;;;;3.28;1.65;;;384.40;1792.00;;;;;;5095906;28;20028;-62
2021/05/24 01:42:31;;;;;;;1.65;1.40;;;384.40;1792.00;;;;;;5095759;28;20036;-62
2021/05/24 01:44:57;;;;;;;2.42;1.75;;;384.30;1792.00;;;;;;5095081;28;20043;-62
2021/05/24 01:47:22;;;;;;;2.53;1.50;;;384.40;1817.60;;;;;;5096172;28;20107;-62
2021/05/24 01:49:48;;;;;;;2.58;1.52;;;384.40;1792.00;;;;;;5095710;28;20077;-62
2021/05/24 01:52:16;;;;;;;2.45;1.70;;;384.30;1792.00;;;;;;5095380;28;20465;-62
2021/05/24 01:54:43;;;;;;;2.40;1.67;;;384.30;1792.00;;;;;;5095837;28;20031;-62
2021/05/24 01:57:09;;;;;;;2.53;1.83;;;384.30;1817.60;;;;;;5095427;28;20117;-62
2021/05/24 01:59:36;;;;;;;2.88;1.83;;;384.20;1817.60;;;;;;5095524;28;20480;-62
2021/05/24 02:02:02;;;;;;;3.30;1.50;;;384.20;1817.60;;;;;;5095170;28;20036;-62
2021/05/24 02:04:28;;;;;;;2.85;1.60;;;384.20;1817.60;;;;;;5094073;28;20032;-62
2021/05/24 02:06:54;;;;;;;4.90;1.70;;;384.20;1817.60;;;;;;5095132;28;20027;-62
2021/05/24 02:09:20;;;;;;;2.95;2.00;;;384.10;1817.60;;;;;;5095363;28;20035;-62
2021/05/24 02:11:47;;;;;;;4.15;2.80;;;384.20;1817.60;;;;;;5095322;28;20420;-62
2021/05/24 02:14:13;;;;;;;2.50;1.85;;;384.10;1843.20;;;;;;5095112;28;20031;-62
2021/05/24 02:16:49;;;;;;;4.32;1.80;;;384.10;1817.60;;;;;;5095167;28;20031;-62
2021/05/24 02:19:16;;;;;;;2.65;2.20;;;384.10;1843.20;;;;;;5093710;28;20063;-62
2021/05/24 02:21:43;;;;;;;3.35;1.60;;;384.10;1843.20;;;;;;5094710;28;20051;-62
2021/05/24 02:24:11;;;;;;;4.57;2.00;;;384.00;1843.20;;;;;;5095179;28;20040;-62
2021/05/24 02:26:41;;;;;;;4.53;1.70;;;384.00;1843.20;;;;;;5094850;28;20373;-62
2021/05/24 02:29:07;;;;;;;2.55;1.85;;;384.00;1843.20;;;;;;5094831;28;20595;-62
2021/05/24 02:31:34;;;;;;;2.70;1.88;;;384.00;1843.20;;;;;;5094715;28;20370;-62
2021/05/24 02:34:00;;;;;;;2.33;2.13;;;384.00;1843.20;;;;;;5094816;28;20046;-62
2021/05/24 02:36:26;;;;;;;2.03;1.67;;;359.30;1843.20;;;;;;5094616;28;20032;-62
2021/05/24 02:38:53;;;;;;;4.25;2.03;;;359.30;1843.20;;;;;;5094575;28;20066;-62
2021/05/24 02:41:19;;;;;;;2.03;1.70;;;359.30;1843.20;;;;;;5094812;28;20028;-62
2021/05/24 02:43:45;;;;;;;5.43;1.98;;;359.30;1843.20;;;;;;5094630;28;20032;-62
2021/05/24 02:46:11;;;;;;;3.47;1.98;;;359.30;1843.20;;;;;;5094650;28;20522;-62
2021/05/24 02:48:37;;;;;;;2.38;1.98;;;359.30;1843.20;;;;;;5094607;28;20112;-62
2021/05/24 02:51:04;;;;;;;2.85;1.95;;;359.30;1843.20;;;;;;5094292;28;20020;-62
2021/05/24 02:53:30;;;;;;;3.75;2.00;;;359.20;1843.20;;;;;;5094529;28;20024;-62
2021/05/24 02:55:55;;;;;;;4.63;2.47;;;359.20;1843.20;;;;;;5094570;28;20367;-62
2021/05/24 02:58:21;;;;;;;41.72;4.53;;;359.20;1843.20;;;;;;5094453;28;20461;-62
2021/05/24 03:00:47;;;;;;;17.35;2.80;;;359.20;1868.80;;;;;;5094353;28;20020;-62
2021/05/24 03:03:13;;;;;;;6.85;2.65;;;359.20;1868.80;;;;;;5094126;28;20092;-62
2021/05/24 03:05:40;;;;;;;14.52;2.88;;;359.20;1868.80;;;;;;5094095;28;20024;-62
2021/05/24 03:08:06;;;;;;;3.30;2.15;;;359.20;1868.80;;;;;;5094049;28;20031;-62
2021/05/24 03:10:32;;;;;;;5.35;2.38;;;359.10;1868.80;;;;;;5094151;28;20020;-61
2021/05/24 03:12:57;;;;;;;3.85;2.22;;;359.10;1868.80;;;;;;5094358;28;20054;-62
2021/05/24 03:15:24;;;;;;;3.88;2.40;;;359.10;1868.80;;;;;;5093429;28;20035;-62
2021/05/24 03:17:50;;;;;;;6.50;2.50;;;359.10;1868.80;;;;;;5093935;28;20107;-62
2021/05/24 03:20:18;;;;;;;4.20;1.77;;;359.10;1868.80;;;;;;5093902;28;20026;-62
2021/05/24 03:22:45;;;;;;;6.38;2.13;;;359.10;1868.80;;;;;;5093416;28;20102;-61
2021/05/24 03:25:12;;;;;;;5.25;2.13;;;359.10;1868.80;;;;;;5093921;28;20020;-61
2021/05/24 03:27:38;;;;;;;6.97;2.55;;;359.10;1868.80;;;;;;5093846;28;20032;-62
2021/05/24 03:30:06;;;;;;;3.50;2.20;;;359.10;1868.80;;;;;;5093601;28;20020;-63
2021/05/24 03:32:32;;;;;;;5.95;2.10;;;359.10;1868.80;;;;;;5092383;28;20382;-62
2021/05/24 03:34:57;;;;;;;4.13;2.15;;;359.10;1868.80;;;;;;5093343;28;20020;-63
2021/05/24 03:37:23;;;;;;;3.05;2.10;;;359.00;1868.80;;;;;;5093992;28;20024;-63
2021/05/24 03:39:49;;;;;;;13.15;2.38;;;359.00;1868.80;;;;;;5093897;28;20051;-62
2021/05/24 03:42:15;;;;;;;7.30;2.30;;;359.00;1868.80;;;;;;5093779;28;20073;-63
2021/05/24 03:44:44;;;;;;;3.75;2.35;;;359.00;1868.80;;;;;;5093341;28;20568;-63
2021/05/24 03:47:11;;;;;;;12.07;2.30;;;359.00;1894.40;;;;;;5093761;28;20103;-62
2021/05/24 03:49:38;;;;;;;6.63;2.15;;;359.00;1894.40;;;;;;5093751;28;20032;-63
2021/05/24 03:52:05;;;;;;;5.60;2.20;;;359.00;1894.40;;;;;;5093529;28;20024;-62
2021/05/24 03:54:30;;;;;;;5.07;2.25;;;359.00;1894.40;;;;;;5093749;28;20020;-63
2021/05/24 03:56:56;;;;;;;3.28;2.05;;;359.00;1894.40;;;;;;5093625;28;20427;-63
2021/05/24 03:59:22;;;;;;;5.18;2.15;;;359.00;1894.40;;;;;;5093701;28;20034;-62
2021/05/24 04:01:50;;;;;;;9.63;2.35;;;359.10;1894.40;;;;;;5093379;28;20390;-63
2021/05/24 04:04:17;;;;;;;12.25;2.75;;;359.10;1894.40;;;;;;5093693;28;20033;-62
2021/05/24 04:06:44;;;;;;;3.92;2.00;;;359.00;1894.40;;;;;;5093432;28;20023;-63
2021/05/24 04:09:10;;;;;;;6.28;2.65;;;359.10;1894.40;;;;;;5093602;28;20093;-62
2021/05/24 04:11:36;;;;;;;3.38;2.40;;;359.10;1894.40;;;;;;5093879;28;20453;-62
2021/05/24 04:14:01;;;;;;;6.10;2.40;;;359.10;1894.40;;;;;;5093640;28;20031;-63
2021/05/24 04:16:27;;;;;;;7.43;2.45;;;359.10;1894.40;;;;;;5093517;28;20035;-62
2021/05/24 04:18:53;;;;;;;7.35;2.20;;;359.20;1894.40;;;;;;5093327;28;20028;-63
2021/05/24 04:21:19;;;;;;;4.43;1.92;;;359.20;1894.40;;;;;;5093456;28;20028;-62
2021/05/24 04:23:45;;;;;;;4.82;2.30;;;359.20;1894.40;;;;;;5093445;28;20032;-62
2021/05/24 04:26:14;;;;;;;4.63;2.05;;;359.20;1894.40;;;;;;5093732;28;20017;-63
2021/05/24 04:28:40;;;;;;;13.10;4.18;;;384.00;1894.40;;;;;;5093482;28;20025;-62
2021/05/24 04:31:05;;;;;;;3.67;2.53;;;384.00;1894.40;;;;;;5093297;28;20469;-63
2021/05/24 04:33:31;;;;;;;2.97;2.08;;;384.00;1894.40;;;;;;5092969;28;20089;-63
2021/05/24 04:35:59;;;;;;;2.63;2.30;;;384.10;1894.40;;;;;;5093163;28;20024;-63
2021/05/24 04:38:25;;;;;;;7.32;2.80;;;384.20;1868.80;;;;;;5093388;28;20031;-62
2021/05/24 04:40:51;;;;;;;3.30;2.17;;;384.40;1843.20;;;;;;5093239;28;20028;-63
2021/05/24 04:43:17;;;;;;;4.13;2.17;;;384.50;1843.20;;;;;;5097038;28;20032;-63
2021/05/24 04:45:43;;;;;;;6.25;2.17;;;384.50;1843.20;;;;;;5097223;28;20449;-62
2021/05/24 04:48:09;;;;;;;3.40;2.10;;;384.60;1817.60;;;;;;5097129;28;20035;-63
2021/05/24 04:50:35;;;;;;;4.45;2.28;;;384.80;1817.60;;;;;;5096923;28;20158;-63
2021/05/24 04:53:01;;;;;;;5.80;2.40;;;384.80;1817.60;;;;;;5096811;28;20363;-63
2021/05/24 04:55:27;;;;;;;2.53;2.15;;;409.60;1843.20;;;;;;5097005;28;20027;-63
2021/05/24 04:57:52;;;;;;;5.70;2.50;;;409.70;1843.20;;;;;;5097092;28;20094;-63
2021/05/24 05:00:18;;;;;;;3.03;2.28;;;409.80;1817.60;;;;;;5096739;28;20123;-63
2021/05/24 05:02:44;;;;;;;4.57;2.50;;;409.80;1817.60;;;;;;5096511;28;20157;-63
2021/05/24 05:05:11;;;;;;;4.75;2.35;;;410.00;1792.00;;;;;;5096957;28;20027;-63
2021/05/24 05:07:37;;;;;;;3.05;2.45;;;410.00;1792.00;;;;;;5096149;28;20035;-62
2021/05/24 05:10:03;;;;;;;8.07;2.40;;;410.00;1766.40;;;;;;5096496;28;20021;-62
2021/05/24 05:12:30;;;;;;;6.00;2.28;;;410.10;1766.40;;;;;;5096501;28;20453;-62
2021/05/24 05:14:57;;;;;;;2.92;1.70;;;410.10;1766.40;;;;;;5096332;28;20023;-63
2021/05/24 05:17:23;;;;;;;2.63;1.73;;;410.30;1740.80;;;;;;5096089;28;20055;-62
2021/05/24 05:19:49;;;;;;;4.07;1.75;;;410.40;1740.80;;;;;;5096212;28;20097;-61
2021/05/24 05:22:15;;;;;;;2.17;1.48;;;410.50;1715.20;;;;;;5095887;28;20044;-61
2021/05/24 05:24:41;;;;;;;3.47;1.80;;;435.20;1715.20;;;;;;5096214;28;20488;-62
2021/05/24 05:27:07;;;;;;;2.13;1.55;;;435.40;1689.60;;;;;;5096473;28;20454;-62
2021/05/24 05:29:32;;;;;;;2.92;1.73;;;435.40;1689.60;;;;;;5095796;28;20069;-62
2021/05/24 05:31:59;;;;;;;9.50;1.92;;;435.60;1689.60;;;;;;5095929;28;20111;-62
2021/05/24 05:34:25;;;;;;;6.28;1.45;;;435.70;1664.00;;;;;;5096031;28;20454;-62
2021/05/24 05:36:51;;;;;;;7.20;1.50;;;435.70;1638.40;;;;;;5096048;28;20035;-62
2021/05/24 05:39:17;;;;;;;4.15;1.50;;;435.80;1638.40;;;;;;5095961;28;20027;-62
2021/05/24 05:41:42;;;;;;;3.65;1.50;;;435.80;1638.40;;;;;;5095816;28;20035;-63
2021/05/24 05:44:08;;;;;;;3.03;1.65;;;435.80;1638.40;;;;;;5095119;28;20462;-62
2021/05/24 05:46:34;;;;;;;3.22;1.20;;;435.90;1612.80;;;;;;5095144;28;20489;-62
2021/05/24 05:49:01;;;;;;;1.40;1.30;;;435.90;1612.80;;;;;;5095517;28;20020;-62
2021/05/24 05:51:26;;;;;;;5.78;1.33;;;435.90;1612.80;;;;;;5095673;28;20028;-62
2021/05/24 05:53:53;;;;;;;4.32;1.60;;;460.80;1612.80;;;;;;5095094;28;20027;-62
2021/05/24 05:56:19;;;;;;;2.70;1.40;;;460.90;1587.20;;;;;;5095796;28;20381;-62
2021/05/24 05:58:44;;;;;;;6.20;1.60;;;460.90;1587.20;;;;;;5096118;28;20446;-63
2021/05/24 06:01:10;;;;;;;5.13;1.80;;;460.90;1587.20;;;;;;5095257;28;20036;-62
2021/05/24 06:03:36;;;;;;;5.60;1.42;;;461.00;1587.20;;;;;;5095364;28;20032;-61
2021/05/24 06:06:02;;;;;;;3.15;1.65;;;461.00;1561.60;;;;;;5095476;28;20099;-61
2021/05/24 06:08:27;;;;;;;4.38;1.75;;;461.20;1561.60;;;;;;5095414;28;20028;-62
2021/05/24 06:10:55;;;;;;;4.05;1.67;;;461.30;1561.60;;;;;;5095050;28;20024;-62
2021/05/24 06:13:21;;;;;;;2.35;1.30;;;461.20;1536.00;;;;;;5095253;28;20040;-62
2021/05/24 06:15:47;;;;;;;6.43;1.50;;;461.30;1536.00;;;;;;5095147;28;20024;-62
2021/05/24 06:18:12;;;;;;;3.50;1.83;;;461.50;1536.00;;;;;;5095359;28;20077;-62
2021/05/24 06:20:38;;;;;;;8.40;2.17;;;486.40;1510.40;;;;;;5094864;28;20044;-62
2021/05/24 06:23:04;;;;;;;7.80;2.17;;;486.70;1484.80;;;;;;5094794;28;20112;-62
2021/05/24 06:25:31;;;;;;;6.60;2.00;;;487.00;1459.20;;;;;;5094907;28;20423;-62
2021/05/24 06:27:57;;;;;;;4.22;1.70;;;487.30;1433.60;;;;;;5094543;28;20473;-62
2021/05/24 06:30:23;;;;;;;2.80;1.50;;;512.20;1408.00;;;;;;5094890;28;20067;-62
2021/05/24 06:32:48;;;;;;;3.25;1.58;;;512.60;1408.00;;;;;;5094831;28;20048;-62
2021/05/24 06:35:14;;;;;;;2.35;1.55;;;512.90;1382.40;;;;;;5094627;28;20055;-62
2021/05/24 06:37:40;;;;;;;3.00;1.15;;;537.70;1382.40;;;;;;5094548;28;20024;-62
2021/05/24 06:40:07;;;;;;;2.70;1.27;;;538.00;1356.80;;;;;;5094691;28;20028;-62
2021/05/24 06:42:33;;;;;;;4.32;1.40;;;538.20;1356.80;;;;;;5094930;28;20466;-62
2021/05/24 06:44:58;;;;;;;4.18;1.50;;;538.50;1331.20;;;;;;5094620;28;20024;-62
2021/05/24 06:47:26;;;;;;;8.35;1.70;;;563.30;1331.20;;;;;;5094631;28;20031;-62
2021/05/24 06:49:52;;;;;;;3.58;1.30;;;563.50;1331.20;;;;;;5094655;28;20020;-62
2021/05/24 06:52:18;;;;;;;2.55;1.30;;;563.70;1305.60;;;;;;5094636;28;20031;-63
2021/05/24 06:54:43;;;;;;;3.63;1.40;;;564.00;1280.00;;;;;;5094442;28;20028;-63
2021/05/24 06:57:09;;;;;;;3.05;1.30;;;588.80;1254.40;;;;;;5094582;28;20116;-63
2021/05/24 06:59:35;;;;;;;5.80;1.50;;;589.00;1254.40;;;;;;5094392;28;20020;-62
2021/05/24 07:02:01;;;;;;;5.50;1.48;;;589.10;1228.80;;;;;;5094431;28;20412;-63
2021/05/24 07:04:28;;;;;;;5.72;1.48;;;589.30;1228.80;;;;;;5093754;28;20023;-63
2021/05/24 07:06:54;;;;;;;3.50;1.58;;;589.50;1203.20;;;;;;5094595;28;20028;-63
2021/05/24 07:09:20;;;;;;;6.05;1.30;;;614.40;1177.60;;;;;;5094354;28;20418;-63
2021/05/24 07:11:46;;;;;;;6.05;1.58;;;614.50;1177.60;;;;;;5094229;28;20378;-63
2021/05/24 07:14:12;;;;;;;2.65;1.48;;;614.70;1152.00;;;;;;5094100;28;20035;-63
2021/05/24 07:16:38;;;;;;;2.28;1.30;;;614.90;1152.00;;;;;;5094089;28;20024;-62
2021/05/24 07:19:04;;;;;;;4.15;1.77;;;615.00;1126.40;;;;;;5094202;28;20453;-63
2021/05/24 07:21:58;;;;;;;4.38;1.30;;;615.00;1100.80;;;;;;5093916;28;20494;-63
2021/05/24 07:24:25;;;;;;;2.88;1.30;;;615.10;1100.80;;;;;;5093743;28;20048;-62
2021/05/24 07:26:54;;;;;;;4.78;1.55;;;615.10;1100.80;;;;;;5094065;28;20030;-63
2021/05/24 07:29:19;;;;;;;2.65;1.10;;;615.20;1100.80;;;;;;5094097;28;20028;-63
2021/05/24 07:31:45;;;;;;;2.47;1.27;;;615.20;1075.20;;;;;;5092600;28;20363;-63
2021/05/24 07:34:11;;;;;;;4.05;1.10;;;615.30;1075.20;;;;;;5093962;28;20024;-62
2021/05/24 07:36:36;;;;;;;4.85;1.17;;;640.00;1075.20;;;;;;5093679;28;20407;-63
2021/05/24 07:39:03;;;;;;;2.58;1.10;;;640.20;1049.60;;;;;;5093972;28;20032;-63
2021/05/24 07:41:29;;;;;;;3.45;1.30;;;640.30;1049.60;;;;;;5093773;28;20016;-63
2021/05/24 07:43:55;;;;;;;3.22;1.13;;;640.40;1049.60;;;;;;5093784;28;20366;-63
2021/05/24 07:46:21;;;;;;;1.65;1.13;;;640.60;1049.60;;;;;;5093759;28;20032;-63
2021/05/24 07:48:47;;;;;;;6.00;1.30;;;640.80;1024.00;;;;;;5093794;28;20024;-63
2021/05/24 07:51:12;;;;;;;2.35;1.05;;;665.60;1049.60;;;;;;5093873;28;20044;-63
2021/05/24 07:53:38;;;;;;;2.97;0.95;;;665.80;1049.60;;;;;;5093915;28;20052;-63
2021/05/24 07:56:04;;;;;;;4.63;1.08;;;665.80;1024.00;;;;;;5093816;28;20074;-63
2021/05/24 07:58:30;;;;;;;3.88;1.05;;;665.70;998.40;;;;;;5093882;28;20030;-63
2021/05/24 08:00:56;;;;;;;4.57;1.00;;;665.60;998.40;;;;;;5093599;28;20416;-63
2021/05/24 08:03:22;;;;;;;2.35;0.80;;;665.70;1024.00;;;;;;5093725;28;20032;-63
2021/05/24 08:05:47;;;;;;;3.78;0.90;;;665.70;998.40;;;;;;5093661;28;20050;-63
2021/05/24 08:08:13;;;;;;;1.63;1.00;;;666.00;998.40;;;;;;5093483;28;20024;-63
2021/05/24 08:10:39;;;;;;;2.83;0.90;;;666.10;998.40;;;;;;5093807;28;20050;-63
2021/05/24 08:13:04;;;;;;;1.10;0.75;;;666.30;998.40;;;;;;5093663;28;20077;-63
2021/05/24 08:15:32;;;;;;;9.40;1.15;;;691.20;947.20;;;;;;5095045;28;20021;-63
2021/05/24 08:18:04;;;;;;;1.80;1.08;;;691.40;972.80;;;;;;5097448;28;20032;-62
2021/05/24 08:20:30;;;;;;;1.73;0.75;;;691.60;947.20;;;;;;5097303;28;20040;-63
2021/05/24 08:22:56;;;;;;;2.03;0.90;;;691.80;947.20;;;;;;5097156;28;20032;-63
2021/05/24 08:25:22;;;;;;;1.42;0.70;;;691.90;921.60;;;;;;5097268;28;20082;-63
2021/05/24 08:27:48;;;;;;;1.48;0.80;;;692.00;921.60;;;;;;5097040;28;20030;-62
2021/05/24 08:30:14;;;;;;;15.52;2.10;;;716.80;947.20;;;;;;5097032;28;20024;-63
2021/05/24 08:32:40;;;;;;;14.10;1.92;;;716.80;921.60;;;;;;5096951;28;20028;-63
2021/05/24 08:35:07;;;;;;;20.75;2.08;;;716.80;921.60;;;;;;5097129;28;20518;-63
2021/05/24 08:37:33;;;;;;;8.93;1.75;;;716.90;921.60;;;;;;5096955;28;20381;-62
2021/05/24 08:39:59;;;;;;;4.50;1.27;;;716.80;896.00;;;;;;5096974;28;20024;-62
2021/05/24 08:42:29;;;;;;;9.40;4.68;;;692.10;870.40;;;;;;5096999;28;20046;-63
2021/05/24 08:44:57;;;;;;;2.45;1.70;;;692.00;870.40;;;;;;5096953;28;20073;-64
2021/05/24 08:47:24;;;;;;;3.50;1.25;;;692.10;870.40;;;;;;5095420;28;20028;-64
2021/05/24 08:49:51;;;;;;;8.82;1.55;;;692.00;870.40;;;;;;5096518;28;20043;-63
2021/05/24 08:52:17;;;;;;;4.57;1.48;;;691.90;870.40;;;;;;5096866;28;20020;-63
2021/05/24 08:54:43;;;;;;;11.55;7.70;;;691.90;870.40;;;;;;5096395;28;20032;-63
2021/05/24 08:57:09;;;;;;;6.47;4.32;;;691.80;896.00;;;;;;5097249;28;20020;-63
2021/05/24 08:59:34;;;;;;;18.13;11.35;;;691.50;896.00;;;;;;5096532;28;20028;-63
2021/05/24 09:02:00;;;;;;;7.00;3.72;;;691.20;947.20;;;;;;5096450;28;20407;-63
2021/05/24 09:04:47;;;;;;;5.10;2.17;;;666.50;947.20;;;;;;5096296;28;20032;-63
2021/05/24 09:07:14;;;;;;;2.05;1.13;;;691.40;947.20;;;;;;5096475;28;20587;-63
2021/05/24 09:09:56;;;;;;;3.75;1.38;;;691.80;896.00;;;;;;5096463;28;20024;-63
2021/05/24 09:12:30;;;;;;;2.38;1.77;;;691.90;921.60;;;;;;5096011;28;20500;-63
2021/05/24 09:14:57;;;;;;;3.80;0.90;;;691.80;921.60;;;;;;5096308;28;20397;-63
2021/05/24 09:17:23;;;;;;;3.60;1.13;;;691.50;921.60;;;;;;5095899;28;20032;-63
2021/05/24 09:19:49;;;;;;;4.53;1.85;;;691.40;896.00;;;;;;5096328;28;20024;-63
2021/05/24 09:22:15;;;;;;;1.45;1.08;;;691.30;896.00;;;;;;5095669;28;20489;-63
2021/05/24 09:24:43;;;;;;;1.08;0.65;;;691.20;896.00;;;;;;5096324;28;20036;-63
2021/05/24 09:27:21;;;;;;;25.95;1.98;;;691.20;921.60;;;;;;5095513;28;20406;-64
2021/05/24 09:29:47;;;;;;;12.15;3.50;;;691.30;921.60;;;;;;5096096;28;20412;-63
2021/05/24 09:32:14;;;;;;;4.75;2.70;;;691.30;896.00;;;;;;5095670;28;20039;-63
2021/05/24 09:34:42;;;;;;;2.72;1.40;;;666.50;921.60;;;;;;5095277;28;20032;-63
2021/05/24 09:37:08;;;;;;;3.35;1.60;;;666.40;921.60;;;;;;5095001;28;20478;-63
2021/05/24 09:39:35;;;;;;;5.22;1.88;;;691.30;921.60;;;;;;5096301;28;20024;-63
2021/05/24 09:42:19;;;;;;;7.03;1.80;;;691.40;896.00;;;;;;5095535;28;20028;-64
2021/05/24 09:44:49;;;;;;;17.05;1.35;;;691.70;896.00;;;;;;5095246;28;20028;-63
2021/05/24 09:47:15;;;;;;;10.10;1.83;;;691.90;896.00;;;;;;5095366;28;20044;-64
2021/05/24 09:49:43;;;;;;;5.80;1.40;;;692.10;896.00;;;;;;5095265;28;20028;-63
2021/05/24 09:52:09;;;;;;;2.35;1.10;;;716.90;896.00;;;;;;5096285;28;20115;-64
2021/05/24 09:54:37;;;;;;;1.25;0.82;;;717.10;896.00;;;;;;5095715;28;20048;-62
2021/05/24 09:57:09;;;;;;;2.20;0.95;;;717.30;870.40;;;;;;5094634;28;20504;-62
2021/05/24 09:59:36;;;;;;;2.47;1.00;;;717.60;844.80;;;;;;5092985;28;20036;-62
2021/05/24 10:02:05;;;;;;;0.93;0.68;;;742.40;870.40;;;;;;5094711;28;20016;-62
2021/05/24 10:04:36;;;;;;;5.20;0.82;;;717.70;844.80;;;;;;5094828;28;20020;-62
2021/05/24 10:07:03;;;;;;;1.20;0.77;;;717.70;819.20;;;;;;5094759;28;20020;-63
2021/05/24 10:09:34;;;;;;;2.10;0.90;;;717.40;819.20;;;;;;5095099;28;20116;-63
2021/05/24 10:12:03;;;;;;;1.90;0.90;;;717.00;819.20;;;;;;5094732;28;20020;-62
2021/05/24 10:14:30;;;;;;;2.60;1.10;;;692.00;819.20;;;;;;5091909;28;20028;-62
2021/05/24 10:17:01;;;;;;;2.88;0.80;;;691.60;870.40;;;;;;5094900;28;20095;-62
2021/05/24 10:19:27;;;;;;;2.40;0.80;;;691.40;870.40;;;;;;5094799;28;20020;-62
2021/05/24 10:21:53;;;;;;;1.33;0.80;;;666.40;896.00;;;;;;5094554;28;20397;-63
2021/05/24 10:24:21;;;;;;;1.35;0.80;;;666.10;896.00;;;;;;5094492;28;20111;-62
2021/05/24 10:26:47;;;;;;;3.47;0.90;;;666.00;921.60;;;;;;5093567;28;20054;-64
2021/05/24 10:29:14;;;;;;;2.80;1.20;;;665.80;947.20;;;;;;5093356;28;20023;-62
2021/05/24 10:31:40;;;;;;;4.05;1.02;;;665.80;947.20;;;;;;5093345;28;20015;-65
2021/05/24 10:34:22;;;;;;;20.98;1.88;;;665.80;947.20;;;;;;5093498;28;20042;-62
2021/05/24 10:37:06;;;;;;;1.95;1.05;;;665.80;972.80;;;;;;5092324;28;20028;-62
2021/05/24 10:39:44;;;;;;;2.20;0.90;;;665.70;972.80;;;;;;5092011;28;20368;-62
2021/05/24 10:42:13;;;;;;;2.10;1.10;;;640.80;947.20;;;;;;5093113;28;20028;-62
2021/05/24 10:44:44;;;;;;;4.25;1.40;;;640.70;921.60;;;;;;5093166;28;20074;-62
2021/05/24 10:47:23;;;;;;;2.00;1.10;;;640.60;947.20;;;;;;5092889;28;20480;-62
2021/05/24 10:50:17;;;;;;;4.22;1.05;;;640.30;998.40;;;;;;5090879;28;20035;-62
2021/05/24 10:53:00;;;;;;;8.35;5.03;;;640.00;1024.00;;;;;;5090702;28;20405;-63
2021/05/24 10:55:26;;;;;;;8.13;4.10;;;615.30;1049.60;;;;;;5093029;28;20024;-62
2021/05/24 10:58:14;;;;;;;3.85;2.30;;;640.00;1049.60;;;;;;5092692;28;20032;-61
2021/05/24 11:00:59;;;;;;;3.97;2.65;;;640.00;1024.00;;;;;;5091972;28;20399;-64
2021/05/24 11:03:25;;;;;;;4.43;2.40;;;640.00;1049.60;;;;;;5093870;28;20116;-63
2021/05/24 11:06:11;;;;;;;2.60;2.13;;;615.20;1049.60;;;;;;5094400;28;20023;-63
2021/05/24 11:08:39;;;;;;;1.52;1.25;;;615.20;1049.60;;;;;;5094419;28;20024;-63
2021/05/24 11:11:25;;;;;;;3.03;1.50;;;615.10;1024.00;;;;;;5094124;28;20462;-63
2021/05/24 11:13:52;;;;;;;3.70;2.13;;;614.90;1049.60;;;;;;5094287;28;20477;-62
2021/05/24 11:16:18;;;;;;;6.40;1.90;;;614.90;1049.60;;;;;;5094151;28;20028;-63
2021/05/24 11:18:45;;;;;;;3.70;1.20;;;614.80;1075.20;;;;;;5094226;28;20463;-63
2021/05/24 11:21:15;;;;;;;1.77;1.17;;;614.80;1075.20;;;;;;5093753;28;20059;-63
2021/05/24 11:26:31;;;;;;;14.13;1.90;;;614.80;1075.20;;;;;;5093973;28;20370;-63
2021/05/24 11:29:26;;;;;;;17.35;1.92;;;614.90;1100.80;;;;;;5094132;28;20399;-62
2021/05/24 11:31:56;;;;;;;8.73;1.40;;;614.80;1100.80;;;;;;5093674;28;20493;-63
2021/05/24 11:34:36;;;;;;;10.05;1.63;;;614.70;1100.80;;;;;;5093848;28;20020;-63
2021/05/24 11:37:07;;;;;;;6.95;1.33;;;614.70;1126.40;;;;;;5093834;28;20065;-62
2021/05/24 11:39:36;;;;;;;5.93;1.40;;;614.50;1126.40;;;;;;5093990;28;20362;-63
2021/05/24 11:42:06;;;;;;;6.93;1.45;;;614.40;1126.40;;;;;;5093834;28;20046;-63
2021/05/24 11:44:40;;;;;;;2.97;1.20;;;614.40;1152.00;;;;;;5093601;28;20024;-63
2021/05/24 11:47:09;;;;;;;2.80;1.33;;;614.40;1126.40;;;;;;5093838;28;20040;-63
2021/05/24 11:49:38;;;;;;;4.90;1.20;;;589.70;1126.40;;;;;;5093809;28;20033;-63
2021/05/24 11:52:10;;;;;;;2.22;1.17;;;589.70;1126.40;;;;;;5097924;28;20028;-63
2021/05/24 11:54:37;;;;;;;3.33;1.25;;;589.70;1152.00;;;;;;5097920;28;20103;-63
2021/05/24 11:57:08;;;;;;;5.68;1.23;;;589.70;1152.00;;;;;;5097957;28;20108;-63
2021/05/24 11:59:35;;;;;;;3.03;1.00;;;614.40;1126.40;;;;;;5097778;28;20090;-63
2021/05/24 12:02:03;;;;;;;3.40;1.10;;;614.50;1126.40;;;;;;5097789;28;20038;-62
2021/05/24 12:04:36;;;;;;;5.18;1.13;;;614.60;1100.80;;;;;;5097772;28;20481;-63
2021/05/24 12:07:20;;;;;;;4.00;1.10;;;614.70;1100.80;;;;;;5097735;28;20117;-63
2021/05/24 12:09:55;;;;;;;4.15;1.17;;;614.80;1100.80;;;;;;5097597;28;20487;-63
2021/05/24 12:12:22;;;;;;;5.40;1.60;;;614.80;1100.80;;;;;;5097419;28;20047;-63
2021/05/24 12:15:01;;;;;;;2.03;1.08;;;614.90;1100.80;;;;;;5097468;28;20462;-63
2021/05/24 12:17:29;;;;;;;6.93;1.02;;;614.80;1100.80;;;;;;5097377;28;20078;-63
2021/05/24 12:19:56;;;;;;;7.28;1.33;;;614.90;1100.80;;;;;;5097360;28;20035;-63
2021/05/24 12:22:25;;;;;;;1.52;1.00;;;614.90;1075.20;;;;;;5097112;28;20056;-63
2021/05/24 12:24:55;;;;;;;3.40;1.30;;;614.90;1100.80;;;;;;5097304;28;20466;-63